createdAt,value
2018-06-01T00:01:04.918Z,95019.27
2018-06-01T00:04:08.183Z,95023.33
2018-06-01T00:07:11.445Z,95025.67
2018-06-01T00:10:15.643Z,95028.94
2018-06-01T00:13:19.687Z,95027.62
2018-06-01T00:16:23.018Z,95031.65
2018-06-01T00:19:26.274Z,95031.50
2018-06-01T00:22:30.962Z,95031.87
2018-06-01T00:25:34.358Z,95034.17
2018-06-01T00:28:37.616Z,95037.43
2018-06-01T00:31:40.889Z,95043.41
2018-06-01T00:34:45.031Z,95049.84
2018-06-01T00:37:48.313Z,95045.42
2018-06-01T00:40:52.351Z,95043.07
2018-06-01T00:43:55.604Z,95048.63
2018-06-01T00:46:58.875Z,95055.44
2018-06-01T00:50:02.130Z,95057.30
2018-06-01T00:53:05.399Z,95059.84
2018-06-01T00:56:09.784Z,95060.03
2018-06-01T00:59:13.039Z,95058.45
2018-06-01T01:02:16.307Z,95062.55
2018-06-01T01:05:19.569Z,95058.98
2018-06-01T01:08:22.843Z,95064.55
2018-06-01T01:11:26.110Z,95073.05
2018-06-01T01:14:29.370Z,95076.28
2018-06-01T01:17:32.629Z,95067.77
2018-06-01T01:20:36.669Z,95071.92
2018-06-01T01:23:41.302Z,95072.42
2018-06-01T01:26:44.555Z,95073.94
2018-06-01T01:29:49.729Z,95075.74
2018-06-01T01:32:53.045Z,95075.69
2018-06-01T01:35:56.311Z,95080.27
2018-06-01T01:38:59.578Z,95079.98
2018-06-01T01:42:04.194Z,95075.59
2018-06-01T01:45:07.459Z,95078.75
2018-06-01T01:48:10.770Z,95075.05
2018-06-01T01:51:14.045Z,95080.75
2018-06-01T01:54:17.335Z,95078.22
2018-06-01T01:57:21.461Z,95080.05
2018-06-01T02:00:24.715Z,95079.25
2018-06-01T02:03:29.559Z,95076.80
2018-06-01T02:06:32.830Z,95072.48
2018-06-01T02:09:36.089Z,95082.44
2018-06-01T02:12:39.589Z,95090.07
2018-06-01T02:15:42.847Z,95081.25
2018-06-01T02:18:46.869Z,95083.72
2018-06-01T02:21:50.170Z,95088.34
2018-06-01T02:24:53.414Z,95094.21
2018-06-01T02:27:56.681Z,95098.83
2018-06-01T02:30:59.947Z,95098.56
2018-06-01T02:34:03.964Z,95104.84
2018-06-01T02:37:07.992Z,95114.80
2018-06-01T02:40:11.274Z,95115.21
2018-06-01T02:43:15.304Z,95115.63
2018-06-01T02:46:18.603Z,95121.95
2018-06-01T02:49:21.987Z,95128.41
2018-06-01T02:52:26.018Z,95128.20
2018-06-01T02:55:29.326Z,95132.22
2018-06-01T02:58:32.622Z,95139.39
2018-06-01T03:01:35.894Z,95144.80
2018-06-01T03:04:39.917Z,95141.70
2018-06-01T03:07:43.811Z,95141.16
2018-06-01T03:10:47.840Z,95146.46
2018-06-01T03:13:51.871Z,95150.84
2018-06-01T03:16:55.157Z,95150.27
2018-06-01T03:19:59.175Z,95159.22
2018-06-01T03:23:02.430Z,95157.25
2018-06-01T03:26:06.901Z,95162.26
2018-06-01T03:29:10.933Z,95162.40
2018-06-01T03:32:14.211Z,95168.25
2018-06-01T03:35:17.466Z,95167.70
2018-06-01T03:38:20.733Z,95173.48
2018-06-01T03:41:24.004Z,95184.34
2018-06-01T03:44:27.418Z,95188.19
2018-06-01T03:47:30.713Z,95183.98
2018-06-01T03:50:33.975Z,95189.34
2018-06-01T03:53:38.002Z,95189.84
2018-06-01T03:56:42.142Z,95192.66
2018-06-01T03:59:45.418Z,95191.18
2018-06-01T04:02:48.743Z,95191.64
2018-06-01T04:05:51.991Z,95194.14
2018-06-01T04:08:56.042Z,95189.27
2018-06-01T04:11:59.328Z,95203.27
2018-06-01T04:15:03.321Z,95195.85
2018-06-01T04:18:07.358Z,95200.05
2018-06-01T04:21:10.626Z,95197.67
2018-06-01T04:24:13.907Z,95199.86
2018-06-01T04:27:17.181Z,95215.05
2018-06-01T04:30:20.512Z,95215.02
2018-06-01T04:33:24.674Z,95209.27
2018-06-01T04:36:28.134Z,95217.25
2018-06-01T04:39:31.488Z,95220.69
2018-06-01T04:42:34.766Z,95216.56
2018-06-01T04:45:40.416Z,95219.05
2018-06-01T04:48:44.903Z,95220.06
2018-06-01T04:51:49.441Z,95223.42
2018-06-01T04:54:52.721Z,95227.78
2018-06-01T04:57:56.066Z,95229.79
2018-06-01T05:00:59.335Z,95232.70
2018-06-01T05:04:02.599Z,95227.80
2018-06-01T05:07:07.351Z,95236.36
2018-06-01T05:10:13.178Z,95239.05
2018-06-01T05:13:18.105Z,95241.94
2018-06-01T05:16:22.852Z,95237.66
2018-06-01T05:19:26.679Z,95239.68
2018-06-01T05:22:34.685Z,95242.16
2018-06-01T05:25:38.198Z,95240.97
2018-06-01T05:28:41.519Z,95243.62
2018-06-01T05:31:45.164Z,95243.59
2018-06-01T05:34:48.511Z,95252.24
2018-06-01T05:37:51.786Z,95249.64
2018-06-01T05:40:57.761Z,95262.48
2018-06-01T05:44:04.098Z,95264.49
2018-06-01T05:47:08.241Z,95265.73
2018-06-01T05:50:12.339Z,95273.89
2018-06-01T05:53:16.420Z,95280.72
2018-06-01T05:56:19.741Z,95289.14
2018-06-01T05:59:23.774Z,95295.22
2018-06-01T06:02:27.053Z,95297.20
2018-06-01T06:05:31.155Z,95296.87
2018-06-01T06:08:34.423Z,95300.15
2018-06-01T06:11:38.104Z,95298.50
2018-06-01T06:14:41.397Z,95301.88
2018-06-01T06:17:45.483Z,95300.63
2018-06-01T06:20:48.793Z,95299.31
2018-06-01T06:23:52.829Z,95303.31
2018-06-01T06:26:57.142Z,95301.05
2018-06-01T06:30:00.426Z,95305.42
2018-06-01T06:33:03.687Z,95311.27
2018-06-01T06:36:06.981Z,95321.30
2018-06-01T06:39:11.786Z,95315.23
2018-06-01T06:42:15.054Z,95322.63
2018-06-01T06:45:19.098Z,95325.94
2018-06-01T06:48:22.377Z,95322.86
2018-06-01T06:51:26.495Z,95316.16
2018-06-01T06:54:30.531Z,95318.84
2018-06-01T06:57:33.842Z,95320.95
2018-06-01T07:00:37.443Z,95324.18
2018-06-01T07:03:40.742Z,95327.73
2018-06-01T07:06:44.028Z,95328.20
2018-06-01T07:09:47.295Z,95323.27
2018-06-01T07:12:51.497Z,95328.42
2018-06-01T07:15:54.782Z,95324.41
2018-06-01T07:18:58.047Z,95327.13
2018-06-01T07:22:01.737Z,95325.62
2018-06-01T07:25:05.317Z,95330.89
2018-06-01T07:28:08.614Z,95326.69
2018-06-01T07:31:11.919Z,95329.05
2018-06-01T07:34:15.961Z,95333.42
2018-06-01T07:37:19.243Z,95328.27
2018-06-01T07:40:22.515Z,95331.89
2018-06-01T07:43:25.862Z,95330.27
2018-06-01T07:46:29.122Z,95328.34
2018-06-01T07:49:33.181Z,95329.50
2018-06-01T07:52:36.442Z,95330.05
2018-06-01T07:55:40.560Z,95328.12
2018-06-01T07:58:44.754Z,95342.23
2018-06-01T08:01:48.013Z,95337.48
2018-06-01T08:04:52.313Z,95345.06
2018-06-01T08:07:55.641Z,95341.91
2018-06-01T08:10:58.914Z,95343.15
2018-06-01T08:14:02.204Z,95339.06
2018-06-01T08:17:05.634Z,95335.81
2018-06-01T08:20:08.884Z,95346.13
2018-06-01T08:23:12.903Z,95342.91
2018-06-01T08:26:16.332Z,95342.66
2018-06-01T08:29:19.693Z,95342.37
2018-06-01T08:32:23.887Z,95342.00
2018-06-01T08:35:27.121Z,95346.42
2018-06-01T08:38:30.419Z,95346.27
2018-06-01T08:41:33.728Z,95349.19
2018-06-01T08:44:36.989Z,95352.37
2018-06-01T08:47:40.311Z,95350.53
2018-06-01T08:50:43.703Z,95351.83
2018-06-01T08:53:47.804Z,95348.18
2018-06-01T08:56:51.857Z,95355.59
2018-06-01T08:59:56.189Z,95350.33
2018-06-01T09:02:59.446Z,95345.36
2018-06-01T09:06:03.516Z,95345.13
2018-06-01T09:09:07.062Z,95340.94
2018-06-01T09:12:11.099Z,95345.40
2018-06-01T09:15:14.390Z,95346.73
2018-06-01T09:18:17.669Z,95352.71
2018-06-01T09:21:21.729Z,95350.30
2018-06-01T09:24:24.992Z,95348.98
2018-06-01T09:27:29.024Z,95350.17
2018-06-01T09:30:33.213Z,95349.95
2018-06-01T09:33:36.480Z,95353.48
2018-06-01T09:36:40.637Z,95354.88
2018-06-01T09:39:44.654Z,95352.42
2018-06-01T09:42:49.795Z,95355.92
2018-06-01T09:45:53.824Z,95355.48
2018-06-01T09:48:57.094Z,95355.61
2018-06-01T09:52:00.343Z,95350.19
2018-06-01T09:55:04.047Z,95347.98
2018-06-01T09:58:07.307Z,95349.11
2018-06-01T10:01:10.583Z,95336.82
2018-06-01T10:04:13.917Z,95337.59
2018-06-01T10:07:17.178Z,95338.50
2018-06-01T10:10:26.019Z,95340.91
2018-06-01T10:13:32.554Z,95329.20
2018-06-01T10:16:35.819Z,95331.88
2018-06-01T10:19:39.094Z,95328.28
2018-06-01T10:22:43.192Z,95321.25
2018-06-01T10:25:46.459Z,95318.17
2018-06-01T10:28:49.718Z,95314.19
2018-06-01T10:31:52.989Z,95318.27
2018-06-01T10:34:56.984Z,95313.25
2018-06-01T10:38:00.258Z,95323.19
2018-06-01T10:41:03.513Z,95322.93
2018-06-01T10:44:07.553Z,95317.34
2018-06-01T10:47:11.033Z,95318.23
2018-06-01T10:50:15.061Z,95314.61
2018-06-01T10:53:18.322Z,95316.02
2018-06-01T10:56:21.592Z,95317.75
2018-06-01T10:59:24.920Z,95317.33
2018-06-01T11:02:28.175Z,95314.43
2018-06-01T11:05:32.205Z,95312.03
2018-06-01T11:08:36.923Z,95306.69
2018-06-01T11:11:40.194Z,95302.26
2018-06-01T11:14:43.445Z,95313.66
2018-06-01T11:17:47.475Z,95311.23
2018-06-01T11:20:51.468Z,95308.83
2018-06-01T11:23:55.490Z,95308.13
2018-06-01T11:26:59.522Z,95297.50
2018-06-01T11:30:03.548Z,95297.08
2018-06-01T11:33:06.816Z,95297.88
2018-06-01T11:36:10.070Z,95285.48
2018-06-01T11:39:13.321Z,95293.64
2018-06-01T11:42:16.605Z,95286.06
2018-06-01T11:45:20.641Z,95271.97
2018-06-01T11:48:25.610Z,95274.03
2018-06-01T11:51:29.724Z,95272.66
2018-06-01T11:54:34.115Z,95268.52
2018-06-01T11:57:37.377Z,95259.87
2018-06-01T12:00:41.754Z,95262.11
2018-06-01T12:03:48.845Z,95255.78
2018-06-01T12:06:52.105Z,95252.66
2018-06-01T12:09:55.417Z,95241.40
2018-06-01T12:12:58.665Z,95238.63
2018-06-01T12:16:02.518Z,95241.80
2018-06-01T12:19:05.779Z,95243.08
2018-06-01T12:22:09.058Z,95236.11
2018-06-01T12:25:12.319Z,95238.97
2018-06-01T12:28:15.590Z,95233.85
2018-06-01T12:31:19.618Z,95235.73
2018-06-01T12:34:22.866Z,95230.02
2018-06-01T12:37:26.211Z,95233.67
2018-06-01T12:40:29.492Z,95228.45
2018-06-01T12:43:32.765Z,95229.28
2018-06-01T12:46:36.036Z,95230.84
2018-06-01T12:49:39.302Z,95222.63
2018-06-01T12:52:42.553Z,95227.49
2018-06-01T12:55:45.811Z,95220.74
2018-06-01T12:58:49.190Z,95231.55
2018-06-01T13:01:52.579Z,95216.33
2018-06-01T13:04:56.690Z,95220.20
2018-06-01T13:08:00.710Z,95218.34
2018-06-01T13:11:04.725Z,95223.98
2018-06-01T13:14:08.800Z,95221.97
2018-06-01T13:17:12.102Z,95215.50
2018-06-01T13:20:15.360Z,95216.20
2018-06-01T13:23:18.613Z,95214.01
2018-06-01T13:26:21.865Z,95214.91
2018-06-01T13:29:25.115Z,95204.31
2018-06-01T13:32:29.305Z,95209.39
2018-06-01T13:35:32.655Z,95206.20
2018-06-01T13:38:35.913Z,95197.90
2018-06-01T13:41:39.173Z,95196.70
2018-06-01T13:44:42.422Z,95199.63
2018-06-01T13:47:46.563Z,95194.45
2018-06-01T13:50:50.693Z,95196.73
2018-06-01T13:53:53.965Z,95196.48
2018-06-01T13:56:58.082Z,95198.58
2018-06-01T14:00:02.199Z,95195.16
2018-06-01T14:03:06.237Z,95198.59
2018-06-01T14:06:09.511Z,95189.23
2018-06-01T14:09:13.516Z,95181.06
2018-06-01T14:12:17.551Z,95183.49
2018-06-01T14:15:21.249Z,95187.41
2018-06-01T14:18:25.257Z,95188.39
2018-06-01T14:21:29.283Z,95188.58
2018-06-01T14:24:33.362Z,95183.63
2018-06-01T14:27:36.627Z,95181.97
2018-06-01T14:30:39.873Z,95183.13
2018-06-01T14:33:44.065Z,95182.00
2018-06-01T14:36:47.511Z,95180.50
2018-06-01T14:39:51.541Z,95184.17
2018-06-01T14:42:54.816Z,95187.77
2018-06-01T14:45:58.842Z,95186.98
2018-06-01T14:49:02.110Z,95179.81
2018-06-01T14:52:05.438Z,95182.33
2018-06-01T14:55:08.724Z,95182.72
2018-06-01T14:58:12.961Z,95180.05
2018-06-01T15:01:16.219Z,95173.97
2018-06-01T15:04:19.462Z,95175.36
2018-06-01T15:07:22.752Z,95176.64
2018-06-01T15:10:26.059Z,95173.06
2018-06-01T15:13:29.353Z,95167.41
2018-06-01T15:16:32.633Z,95159.11
2018-06-01T15:19:38.513Z,95164.06
2018-06-01T15:22:41.773Z,95160.19
2018-06-01T15:25:45.973Z,95163.19
2018-06-01T15:28:49.204Z,95159.30
2018-06-01T15:31:53.253Z,95156.79
2018-06-01T15:34:56.521Z,95152.72
2018-06-01T15:37:59.780Z,95147.88
2018-06-01T15:41:03.958Z,95150.23
2018-06-01T15:44:07.225Z,95154.09
2018-06-01T15:47:11.373Z,95146.96
2018-06-01T15:50:14.650Z,95147.86
2018-06-01T15:53:18.879Z,95145.94
2018-06-01T15:56:22.636Z,95147.79
2018-06-01T15:59:25.985Z,95146.80
2018-06-01T16:02:30.416Z,95152.45
2018-06-01T16:05:33.779Z,95156.41
2018-06-01T16:08:37.047Z,95149.83
2018-06-01T16:11:40.541Z,95151.89
2018-06-01T16:14:43.999Z,95156.00
2018-06-01T16:17:48.017Z,95154.59
2018-06-01T16:20:52.029Z,95152.24
2018-06-01T16:23:55.281Z,95154.03
2018-06-01T16:26:58.679Z,95154.78
2018-06-01T16:30:01.946Z,95154.64
2018-06-01T16:33:05.261Z,95149.36
2018-06-01T16:36:08.635Z,95151.80
2018-06-01T16:39:12.749Z,95155.56
2018-06-01T16:42:16.778Z,95149.42
2018-06-01T16:45:20.819Z,95149.67
2018-06-01T16:48:24.256Z,95153.48
2018-06-01T16:51:27.510Z,95155.89
2018-06-01T16:54:30.776Z,95157.23
2018-06-01T16:57:34.906Z,95155.50
2018-06-01T17:00:38.188Z,95154.26
2018-06-01T17:03:42.205Z,95153.73
2018-06-01T17:06:46.295Z,95152.78
2018-06-01T17:09:49.563Z,95160.94
2018-06-01T17:12:53.071Z,95163.77
2018-06-01T17:15:56.370Z,95162.55
2018-06-01T17:18:59.655Z,95162.95
2018-06-01T17:22:03.737Z,95169.12
2018-06-01T17:25:07.083Z,95170.41
2018-06-01T17:28:10.372Z,95163.20
2018-06-01T17:31:13.649Z,95165.40
2018-06-01T17:34:16.951Z,95163.27
2018-06-01T17:37:20.618Z,95166.78
2018-06-01T17:40:24.655Z,95168.42
2018-06-01T17:43:29.298Z,95165.86
2018-06-01T17:46:33.499Z,95172.12
2018-06-01T17:49:38.941Z,95173.87
2018-06-01T17:52:42.513Z,95169.91
2018-06-01T17:55:55.041Z,95168.25
2018-06-01T17:58:58.733Z,95163.47
2018-06-01T18:02:02.433Z,95165.98
2018-06-01T18:05:06.653Z,95170.45
2018-06-01T18:08:10.717Z,95169.49
2018-06-01T18:11:14.004Z,95164.73
2018-06-01T18:14:17.362Z,95164.98
2018-06-01T18:17:21.530Z,95163.72
2018-06-01T18:20:24.794Z,95166.59
2018-06-01T18:23:28.112Z,95171.31
2018-06-01T18:26:31.491Z,95171.70
2018-06-01T18:29:34.933Z,95176.00
2018-06-01T18:32:38.185Z,95176.19
2018-06-01T18:35:41.668Z,95179.72
2018-06-01T18:38:45.800Z,95176.98
2018-06-01T18:41:49.106Z,95180.70
2018-06-01T18:44:52.483Z,95190.55
2018-06-01T18:47:56.642Z,95188.47
2018-06-01T18:51:00.113Z,95199.28
2018-06-01T18:54:03.514Z,95207.61
2018-06-01T18:57:07.557Z,95207.45
2018-06-01T19:00:10.923Z,95212.30
2018-06-01T19:03:14.212Z,95213.47
2018-06-01T19:06:18.245Z,95210.77
2018-06-01T19:09:21.593Z,95210.98
2018-06-01T19:12:24.917Z,95206.37
2018-06-01T19:15:28.982Z,95211.44
2018-06-01T19:18:32.256Z,95217.02
2018-06-01T19:21:35.520Z,95220.70
2018-06-01T19:24:38.780Z,95227.06
2018-06-01T19:27:42.144Z,95228.04
2018-06-01T19:30:46.166Z,95236.74
2018-06-01T19:33:49.422Z,95240.77
2018-06-01T19:36:53.457Z,95245.59
2018-06-01T19:39:57.473Z,95249.45
2018-06-01T19:43:00.737Z,95254.27
2018-06-01T19:46:03.991Z,95256.80
2018-06-01T19:49:07.251Z,95261.04
2018-06-01T19:52:10.506Z,95266.61
2018-06-01T19:55:13.761Z,95262.74
2018-06-01T19:58:17.800Z,95268.36
2018-06-01T20:01:21.053Z,95267.56
2018-06-01T20:04:25.131Z,95267.73
2018-06-01T20:07:28.490Z,95268.90
2018-06-01T20:10:32.686Z,95269.48
2018-06-01T20:13:36.113Z,95269.23
2018-06-01T20:16:40.234Z,95271.92
2018-06-01T20:19:44.434Z,95262.27
2018-06-01T20:22:48.873Z,95272.28
2018-06-01T20:25:52.190Z,95270.55
2018-06-01T20:28:55.458Z,95271.50
2018-06-01T20:31:59.754Z,95278.97
2018-06-01T20:35:03.093Z,95273.38
2018-06-01T20:38:06.381Z,95278.02
2018-06-01T20:41:10.400Z,95271.44
2018-06-01T20:44:14.525Z,95273.76
2018-06-01T20:47:17.909Z,95270.09
2018-06-01T20:50:22.036Z,95274.50
2018-06-01T20:53:26.058Z,95276.20
2018-06-01T20:56:29.438Z,95284.43
2018-06-01T20:59:33.459Z,95281.33
2018-06-01T21:02:36.728Z,95277.67
2018-06-01T21:05:40.165Z,95282.64
2018-06-01T21:08:43.421Z,95287.45
2018-06-01T21:11:54.106Z,95289.95
2018-06-01T21:14:57.379Z,95291.65
2018-06-01T21:18:01.525Z,95289.41
2018-06-01T21:21:06.597Z,95293.98
2018-06-01T21:24:09.929Z,95300.34
2018-06-01T21:27:13.179Z,95297.59
2018-06-01T21:30:17.218Z,95294.70
2018-06-01T21:33:20.490Z,95294.06
2018-06-01T21:36:24.525Z,95290.70
2018-06-01T21:39:27.804Z,95291.02
2018-06-01T21:42:31.813Z,95285.97
2018-06-01T21:45:35.073Z,95288.55
2018-06-01T21:48:38.350Z,95290.61
2018-06-01T21:51:41.615Z,95290.56
2018-06-01T21:54:45.667Z,95291.98
2018-06-01T21:57:48.909Z,95282.97
2018-06-01T22:00:54.183Z,95279.62
2018-06-01T22:03:57.772Z,95276.30
2018-06-01T22:07:01.800Z,95280.06
2018-06-01T22:10:05.059Z,95279.27
2018-06-01T22:13:08.306Z,95273.91
2018-06-01T22:16:11.623Z,95269.26
2018-06-01T22:19:14.853Z,95267.69
2018-06-01T22:22:18.111Z,95267.92
2018-06-01T22:25:21.373Z,95271.38
2018-06-01T22:28:24.630Z,95274.66
2018-06-01T22:31:27.955Z,95279.83
2018-06-01T22:34:31.985Z,95281.15
2018-06-01T22:37:35.247Z,95285.11
2018-06-01T22:40:38.489Z,95307.77
2018-06-01T22:43:41.811Z,95309.79
2018-06-01T22:46:45.125Z,95306.27
2018-06-01T22:49:49.173Z,95309.27
2018-06-01T22:52:53.344Z,95301.70
2018-06-01T22:55:56.593Z,95303.07
2018-06-01T22:59:00.894Z,95298.31
2018-06-01T23:02:04.988Z,95292.47
2018-06-01T23:05:08.237Z,95284.54
2018-06-01T23:08:11.490Z,95283.77
2018-06-01T23:11:14.744Z,95291.57
2018-06-01T23:14:18.033Z,95295.86
2018-06-01T23:17:21.413Z,95282.78
2018-06-01T23:20:25.515Z,95284.63
2018-06-01T23:23:28.799Z,95288.01
2018-06-01T23:26:32.054Z,95285.89
2018-06-01T23:29:35.311Z,95276.30
2018-06-01T23:32:39.426Z,95286.77
2018-06-01T23:35:42.858Z,95292.11
2018-06-01T23:38:47.679Z,95291.19
2018-06-01T23:41:50.940Z,95296.56
2018-06-01T23:44:54.193Z,95300.59
2018-06-01T23:47:57.465Z,95295.58
2018-06-01T23:51:01.603Z,95287.19
2018-06-01T23:54:04.854Z,95295.22
2018-06-01T23:57:09.609Z,95297.48
